createdAt,value
2018-04-29T22:41:03.995Z,86.38
2018-04-29T22:43:57.128Z,86.44
2018-04-29T22:45:52.352Z,86.44
2018-04-29T22:46:50.283Z,86.34
2018-04-29T22:47:50.310Z,86.72
2018-04-29T22:48:50.301Z,86.34
2018-04-29T22:49:50.322Z,86.72
2018-04-29T22:50:50.332Z,86.44
2018-04-29T22:51:50.409Z,86.72
2018-04-29T22:52:50.417Z,87.01
2018-04-29T22:53:50.383Z,86.92
2018-04-29T22:54:50.422Z,86.82
2018-04-29T22:55:50.395Z,87.01
2018-04-29T22:56:50.407Z,86.72
2018-04-29T22:57:50.430Z,86.72
2018-04-29T22:58:50.464Z,86.92
2018-04-29T22:59:50.438Z,86.82
2018-04-29T23:00:50.465Z,86.92
2018-04-29T23:01:50.468Z,86.82
2018-04-29T23:02:50.466Z,86.82
2018-04-29T23:03:50.511Z,87.01
2018-04-29T23:04:50.515Z,87.30
2018-04-29T23:05:50.506Z,87.59
2018-04-29T23:06:50.519Z,87.78
2018-04-29T23:07:50.527Z,87.59
2018-04-29T23:08:50.587Z,87.74
2018-04-29T23:09:50.559Z,87.40
2018-04-29T23:10:50.590Z,88.02
2018-04-29T23:11:50.631Z,88.07
2018-04-29T23:12:50.617Z,88.02
2018-04-29T23:13:50.633Z,88.31
2018-04-29T23:14:50.635Z,88.45
2018-04-29T23:15:50.633Z,88.41
2018-04-29T23:16:50.640Z,88.26
2018-04-29T23:17:50.665Z,88.45
2018-04-29T23:18:50.698Z,88.26
2018-04-29T23:19:50.683Z,88.02
2018-04-29T23:20:50.694Z,88.55
2018-04-29T23:21:50.845Z,88.07
2018-04-29T23:22:50.719Z,88.07
2018-04-29T23:23:50.742Z,88.60
2018-04-29T23:24:50.744Z,88.60
2018-04-29T23:25:50.789Z,88.84
2018-04-29T23:26:50.789Z,88.70
2018-04-29T23:27:50.804Z,88.70
2018-04-29T23:28:50.800Z,88.89
2018-04-29T23:29:50.816Z,89.27
2018-04-29T23:30:50.832Z,89.18
2018-04-29T23:31:50.829Z,89.65
2018-04-29T23:32:50.847Z,89.75
2018-04-29T23:33:50.858Z,89.85
2018-04-29T23:34:50.865Z,89.85
2018-04-29T23:35:50.895Z,90.81
2018-04-29T23:36:50.900Z,90.67
2018-04-29T23:37:50.927Z,90.52
2018-04-29T23:38:50.920Z,90.71
2018-04-29T23:39:50.932Z,90.38
2018-04-29T23:40:50.941Z,90.95
2018-04-29T23:42:50.972Z,91.05
2018-04-29T23:43:50.981Z,90.86
2018-04-29T23:44:50.982Z,91.05
2018-04-29T23:45:51.015Z,91.53
2018-04-29T23:46:51.037Z,91.05
2018-04-29T23:47:51.040Z,91.72
2018-04-29T23:48:51.047Z,91.72
2018-04-29T23:49:51.072Z,91.53
2018-04-29T23:50:51.089Z,91.53
2018-04-29T23:51:51.090Z,91.53
2018-04-29T23:52:51.085Z,91.63
2018-04-29T23:53:51.099Z,91.24
2018-04-29T23:54:51.162Z,91.72
2018-04-29T23:55:51.141Z,92.01
2018-04-29T23:56:51.167Z,92.01
2018-04-29T23:57:51.152Z,91.63
2018-04-29T23:58:51.182Z,91.34
2018-04-29T23:59:51.181Z,91.34
